sensor_id;sensor_type;location;lat;lon;timestamp;P1;durP1;ratioP1;P2;durP2;ratioP2
71626;SDS011;59475;52.464;13.590;2023-02-23T00:00:27;22.40;;;9.63;;
71626;SDS011;59475;52.464;13.590;2023-02-23T00:02:56;24.60;;;10.43;;
71626;SDS011;59475;52.464;13.590;2023-02-23T00:05:29;24.97;;;9.73;;
71626;SDS011;59475;52.464;13.590;2023-02-23T00:07:59;25.98;;;10.43;;
71626;SDS011;59475;52.464;13.590;2023-02-23T00:10:25;29.05;;;9.75;;
71626;SDS011;59475;52.464;13.590;2023-02-23T00:12:55;22.85;;;9.55;;
71626;SDS011;59475;52.464;13.590;2023-02-23T00:15:22;22.08;;;9.80;;
71626;SDS011;59475;52.464;13.590;2023-02-23T00:17:51;25.87;;;10.03;;
71626;SDS011;59475;52.464;13.590;2023-02-23T00:20:19;23.98;;;10.75;;
71626;SDS011;59475;52.464;13.590;2023-02-23T00:22:49;23.20;;;10.35;;
71626;SDS011;59475;52.464;13.590;2023-02-23T00:25:17;26.20;;;10.95;;
71626;SDS011;59475;52.464;13.590;2023-02-23T00:27:43;21.33;;;10.47;;
71626;SDS011;59475;52.464;13.590;2023-02-23T00:30:10;24.70;;;10.57;;
71626;SDS011;59475;52.464;13.590;2023-02-23T00:32:37;30.63;;;10.98;;
71626;SDS011;59475;52.464;13.590;2023-02-23T00:35:02;19.23;;;9.40;;
71626;SDS011;59475;52.464;13.590;2023-02-23T00:37:28;24.63;;;9.80;;
71626;SDS011;59475;52.464;13.590;2023-02-23T00:39:53;25.73;;;10.60;;
71626;SDS011;59475;52.464;13.590;2023-02-23T00:42:20;32.20;;;11.43;;
71626;SDS011;59475;52.464;13.590;2023-02-23T00:44:46;30.23;;;9.98;;
71626;SDS011;59475;52.464;13.590;2023-02-23T00:47:13;24.35;;;11.13;;
71626;SDS011;59475;52.464;13.590;2023-02-23T00:49:38;25.20;;;10.77;;
71626;SDS011;59475;52.464;13.590;2023-02-23T00:52:03;21.13;;;10.77;;
71626;SDS011;59475;52.464;13.590;2023-02-23T00:54:29;22.38;;;9.82;;
71626;SDS011;59475;52.464;13.590;2023-02-23T00:56:54;26.50;;;10.50;;
71626;SDS011;59475;52.464;13.590;2023-02-23T00:59:20;21.23;;;9.83;;
71626;SDS011;59475;52.464;13.590;2023-02-23T01:01:45;26.33;;;11.53;;
71626;SDS011;59475;52.464;13.590;2023-02-23T01:04:11;28.75;;;11.00;;
71626;SDS011;59475;52.464;13.590;2023-02-23T01:06:38;27.48;;;11.60;;
71626;SDS011;59475;52.464;13.590;2023-02-23T01:09:06;25.33;;;10.18;;
71626;SDS011;59475;52.464;13.590;2023-02-23T01:11:35;27.63;;;10.80;;
71626;SDS011;59475;52.464;13.590;2023-02-23T01:14:01;22.03;;;9.73;;
71626;SDS011;59475;52.464;13.590;2023-02-23T01:16:28;27.97;;;11.00;;
71626;SDS011;59475;52.464;13.590;2023-02-23T01:18:56;27.73;;;11.60;;
71626;SDS011;59475;52.464;13.590;2023-02-23T01:21:27;31.75;;;11.45;;
71626;SDS011;59475;52.464;13.590;2023-02-23T01:24:03;24.23;;;11.27;;
71626;SDS011;59475;52.464;13.590;2023-02-23T01:26:30;24.88;;;11.38;;
71626;SDS011;59475;52.464;13.590;2023-02-23T01:28:58;27.10;;;11.80;;
71626;SDS011;59475;52.464;13.590;2023-02-23T01:31:26;28.95;;;11.18;;
71626;SDS011;59475;52.464;13.590;2023-02-23T01:33:53;26.38;;;10.73;;
71626;SDS011;59475;52.464;13.590;2023-02-23T01:36:20;26.43;;;11.30;;
71626;SDS011;59475;52.464;13.590;2023-02-23T01:38:45;24.33;;;11.25;;
71626;SDS011;59475;52.464;13.590;2023-02-23T01:41:11;26.57;;;11.27;;
71626;SDS011;59475;52.464;13.590;2023-02-23T01:43:53;27.00;;;11.57;;
71626;SDS011;59475;52.464;13.590;2023-02-23T01:46:31;24.10;;;10.93;;
71626;SDS011;59475;52.464;13.590;2023-02-23T01:49:03;24.75;;;10.98;;
71626;SDS011;59475;52.464;13.590;2023-02-23T01:51:32;24.73;;;10.70;;
71626;SDS011;59475;52.464;13.590;2023-02-23T01:54:34;31.80;;;12.32;;
71626;SDS011;59475;52.464;13.590;2023-02-23T01:56:55;26.00;;;10.93;;
71626;SDS011;59475;52.464;13.590;2023-02-23T01:59:29;26.60;;;10.20;;
71626;SDS011;59475;52.464;13.590;2023-02-23T02:01:59;22.60;;;10.98;;
71626;SDS011;59475;52.464;13.590;2023-02-23T02:04:24;28.05;;;11.07;;
71626;SDS011;59475;52.464;13.590;2023-02-23T02:06:51;24.65;;;11.75;;
71626;SDS011;59475;52.464;13.590;2023-02-23T02:09:18;24.47;;;11.07;;
71626;SDS011;59475;52.464;13.590;2023-02-23T02:11:49;32.58;;;11.90;;
71626;SDS011;59475;52.464;13.590;2023-02-23T02:14:19;29.85;;;13.13;;
71626;SDS011;59475;52.464;13.590;2023-02-23T02:53:05;30.90;;;11.65;;
71626;SDS011;59475;52.464;13.590;2023-02-23T02:55:33;26.50;;;11.45;;
71626;SDS011;59475;52.464;13.590;2023-02-23T02:58:04;29.13;;;12.55;;
71626;SDS011;59475;52.464;13.590;2023-02-23T03:00:39;26.75;;;11.88;;
71626;SDS011;59475;52.464;13.590;2023-02-23T03:03:34;31.07;;;12.03;;
71626;SDS011;59475;52.464;13.590;2023-02-23T03:06:19;26.55;;;11.57;;
71626;SDS011;59475;52.464;13.590;2023-02-23T03:09:10;27.95;;;12.40;;
71626;SDS011;59475;52.464;13.590;2023-02-23T03:12:16;24.40;;;11.25;;
71626;SDS011;59475;52.464;13.590;2023-02-23T03:15:09;27.63;;;10.98;;
71626;SDS011;59475;52.464;13.590;2023-02-23T03:18:32;24.17;;;9.80;;
71626;SDS011;59475;52.464;13.590;2023-02-23T03:21:41;26.88;;;10.77;;
71626;SDS011;59475;52.464;13.590;2023-02-23T03:27:22;33.65;;;12.60;;
71626;SDS011;59475;52.464;13.590;2023-02-23T03:30:22;26.80;;;11.30;;
71626;SDS011;59475;52.464;13.590;2023-02-23T03:33:16;24.20;;;10.83;;
71626;SDS011;59475;52.464;13.590;2023-02-23T03:36:13;25.15;;;11.98;;
71626;SDS011;59475;52.464;13.590;2023-02-23T03:41:52;23.33;;;12.18;;
71626;SDS011;59475;52.464;13.590;2023-02-23T03:44:39;30.00;;;12.20;;
71626;SDS011;59475;52.464;13.590;2023-02-23T03:47:26;27.07;;;11.73;;
71626;SDS011;59475;52.464;13.590;2023-02-23T03:50:20;27.70;;;12.25;;
71626;SDS011;59475;52.464;13.590;2023-02-23T03:53:09;26.35;;;10.98;;
71626;SDS011;59475;52.464;13.590;2023-02-23T03:55:57;26.98;;;11.15;;
71626;SDS011;59475;52.464;13.590;2023-02-23T03:58:44;29.52;;;12.05;;
71626;SDS011;59475;52.464;13.590;2023-02-23T04:01:33;21.77;;;11.03;;
71626;SDS011;59475;52.464;13.590;2023-02-23T04:04:18;24.83;;;11.50;;
71626;SDS011;59475;52.464;13.590;2023-02-23T04:07:06;24.60;;;11.38;;
71626;SDS011;59475;52.464;13.590;2023-02-23T04:09:52;26.80;;;12.90;;
71626;SDS011;59475;52.464;13.590;2023-02-23T04:12:37;29.08;;;11.90;;
71626;SDS011;59475;52.464;13.590;2023-02-23T04:15:37;22.83;;;10.83;;
71626;SDS011;59475;52.464;13.590;2023-02-23T04:18:14;33.17;;;11.95;;
71626;SDS011;59475;52.464;13.590;2023-02-23T04:20:41;22.58;;;10.32;;
71626;SDS011;59475;52.464;13.590;2023-02-23T04:23:07;29.33;;;11.03;;
71626;SDS011;59475;52.464;13.590;2023-02-23T04:25:32;29.50;;;12.20;;
71626;SDS011;59475;52.464;13.590;2023-02-23T04:27:58;26.97;;;12.07;;
71626;SDS011;59475;52.464;13.590;2023-02-23T04:30:24;25.75;;;10.63;;
71626;SDS011;59475;52.464;13.590;2023-02-23T04:32:52;23.98;;;11.65;;
71626;SDS011;59475;52.464;13.590;2023-02-23T04:35:18;29.63;;;11.27;;
71626;SDS011;59475;52.464;13.590;2023-02-23T04:37:45;31.30;;;11.60;;
71626;SDS011;59475;52.464;13.590;2023-02-23T04:40:11;29.77;;;12.00;;
71626;SDS011;59475;52.464;13.590;2023-02-23T04:42:37;24.13;;;10.82;;
71626;SDS011;59475;52.464;13.590;2023-02-23T04:45:03;28.30;;;11.53;;
71626;SDS011;59475;52.464;13.590;2023-02-23T04:47:30;28.92;;;11.85;;
71626;SDS011;59475;52.464;13.590;2023-02-23T04:49:55;24.27;;;11.33;;
71626;SDS011;59475;52.464;13.590;2023-02-23T04:52:20;27.38;;;10.93;;
71626;SDS011;59475;52.464;13.590;2023-02-23T04:54:46;29.33;;;11.60;;
71626;SDS011;59475;52.464;13.590;2023-02-23T04:57:11;24.67;;;10.63;;
71626;SDS011;59475;52.464;13.590;2023-02-23T04:59:37;29.03;;;11.87;;
71626;SDS011;59475;52.464;13.590;2023-02-23T05:02:02;24.55;;;11.40;;
71626;SDS011;59475;52.464;13.590;2023-02-23T05:04:28;25.90;;;10.93;;
71626;SDS011;59475;52.464;13.590;2023-02-23T05:06:54;29.25;;;11.90;;
71626;SDS011;59475;52.464;13.590;2023-02-23T05:09:19;25.03;;;11.97;;
71626;SDS011;59475;52.464;13.590;2023-02-23T05:11:45;28.87;;;12.00;;
71626;SDS011;59475;52.464;13.590;2023-02-23T05:14:10;30.33;;;10.75;;
71626;SDS011;59475;52.464;13.590;2023-02-23T05:16:36;24.97;;;11.03;;
71626;SDS011;59475;52.464;13.590;2023-02-23T05:19:02;29.27;;;10.15;;
71626;SDS011;59475;52.464;13.590;2023-02-23T05:21:28;26.88;;;11.30;;
71626;SDS011;59475;52.464;13.590;2023-02-23T05:23:53;26.63;;;11.40;;
71626;SDS011;59475;52.464;13.590;2023-02-23T05:26:20;26.50;;;12.43;;
71626;SDS011;59475;52.464;13.590;2023-02-23T05:28:47;28.42;;;12.57;;
71626;SDS011;59475;52.464;13.590;2023-02-23T05:31:13;25.20;;;10.80;;
71626;SDS011;59475;52.464;13.590;2023-02-23T05:33:38;26.08;;;11.15;;
71626;SDS011;59475;52.464;13.590;2023-02-23T05:36:07;27.27;;;11.20;;
71626;SDS011;59475;52.464;13.590;2023-02-23T05:38:37;20.25;;;10.73;;
71626;SDS011;59475;52.464;13.590;2023-02-23T05:41:06;26.05;;;11.63;;
71626;SDS011;59475;52.464;13.590;2023-02-23T05:43:32;27.35;;;11.02;;
71626;SDS011;59475;52.464;13.590;2023-02-23T05:45:58;24.00;;;11.70;;
71626;SDS011;59475;52.464;13.590;2023-02-23T05:48:25;26.20;;;10.85;;
71626;SDS011;59475;52.464;13.590;2023-02-23T05:50:51;24.67;;;11.57;;
71626;SDS011;59475;52.464;13.590;2023-02-23T05:53:16;32.00;;;11.57;;
71626;SDS011;59475;52.464;13.590;2023-02-23T05:55:42;28.50;;;11.83;;
71626;SDS011;59475;52.464;13.590;2023-02-23T05:58:08;28.13;;;12.13;;
71626;SDS011;59475;52.464;13.590;2023-02-23T06:00:33;26.73;;;11.83;;
71626;SDS011;59475;52.464;13.590;2023-02-23T06:02:58;26.00;;;11.67;;
71626;SDS011;59475;52.464;13.590;2023-02-23T06:05:24;26.30;;;12.02;;
71626;SDS011;59475;52.464;13.590;2023-02-23T06:07:49;27.73;;;12.90;;
71626;SDS011;59475;52.464;13.590;2023-02-23T06:10:15;25.73;;;11.60;;
71626;SDS011;59475;52.464;13.590;2023-02-23T06:12:40;29.27;;;12.80;;
71626;SDS011;59475;52.464;13.590;2023-02-23T06:15:06;31.13;;;12.60;;
71626;SDS011;59475;52.464;13.590;2023-02-23T06:17:32;35.75;;;13.25;;
71626;SDS011;59475;52.464;13.590;2023-02-23T06:19:57;27.87;;;12.83;;
71626;SDS011;59475;52.464;13.590;2023-02-23T06:22:26;33.05;;;13.20;;
71626;SDS011;59475;52.464;13.590;2023-02-23T06:24:51;31.87;;;13.33;;
71626;SDS011;59475;52.464;13.590;2023-02-23T06:27:17;29.37;;;12.07;;
71626;SDS011;59475;52.464;13.590;2023-02-23T06:29:42;31.15;;;12.60;;
71626;SDS011;59475;52.464;13.590;2023-02-23T06:32:08;32.00;;;13.30;;
71626;SDS011;59475;52.464;13.590;2023-02-23T06:34:33;35.73;;;13.83;;
71626;SDS011;59475;52.464;13.590;2023-02-23T06:36:58;26.42;;;12.70;;
71626;SDS011;59475;52.464;13.590;2023-02-23T06:39:24;37.30;;;14.83;;
71626;SDS011;59475;52.464;13.590;2023-02-23T06:41:49;24.87;;;12.13;;
71626;SDS011;59475;52.464;13.590;2023-02-23T06:44:15;33.47;;;12.50;;
71626;SDS011;59475;52.464;13.590;2023-02-23T06:46:40;29.37;;;12.60;;
71626;SDS011;59475;52.464;13.590;2023-02-23T06:49:06;32.15;;;11.98;;
71626;SDS011;59475;52.464;13.590;2023-02-23T06:51:31;27.80;;;11.73;;
71626;SDS011;59475;52.464;13.590;2023-02-23T06:53:57;27.17;;;12.37;;
71626;SDS011;59475;52.464;13.590;2023-02-23T06:56:22;33.00;;;12.17;;
71626;SDS011;59475;52.464;13.590;2023-02-23T06:58:48;29.60;;;12.25;;
71626;SDS011;59475;52.464;13.590;2023-02-23T07:01:14;29.30;;;13.30;;
71626;SDS011;59475;52.464;13.590;2023-02-23T07:03:40;29.43;;;12.17;;
71626;SDS011;59475;52.464;13.590;2023-02-23T07:06:07;28.35;;;12.35;;
71626;SDS011;59475;52.464;13.590;2023-02-23T07:08:33;36.97;;;13.07;;
71626;SDS011;59475;52.464;13.590;2023-02-23T07:11:09;28.23;;;13.73;;
71626;SDS011;59475;52.464;13.590;2023-02-23T07:13:37;26.63;;;12.50;;
71626;SDS011;59475;52.464;13.590;2023-02-23T07:16:03;29.77;;;12.63;;
71626;SDS011;59475;52.464;13.590;2023-02-23T07:18:29;26.92;;;12.65;;
71626;SDS011;59475;52.464;13.590;2023-02-23T07:20:54;25.77;;;12.27;;
71626;SDS011;59475;52.464;13.590;2023-02-23T07:23:20;29.50;;;12.07;;
71626;SDS011;59475;52.464;13.590;2023-02-23T07:25:48;25.67;;;12.05;;
71626;SDS011;59475;52.464;13.590;2023-02-23T07:28:15;29.13;;;12.82;;
71626;SDS011;59475;52.464;13.590;2023-02-23T07:30:40;29.10;;;12.13;;
71626;SDS011;59475;52.464;13.590;2023-02-23T07:33:05;27.77;;;11.37;;
71626;SDS011;59475;52.464;13.590;2023-02-23T07:35:31;24.23;;;11.85;;
71626;SDS011;59475;52.464;13.590;2023-02-23T07:37:57;25.00;;;12.23;;
71626;SDS011;59475;52.464;13.590;2023-02-23T07:40:23;28.73;;;12.18;;
71626;SDS011;59475;52.464;13.590;2023-02-23T07:42:49;34.23;;;13.07;;
71626;SDS011;59475;52.464;13.590;2023-02-23T07:45:14;31.30;;;12.70;;
71626;SDS011;59475;52.464;13.590;2023-02-23T07:47:41;24.60;;;12.23;;
71626;SDS011;59475;52.464;13.590;2023-02-23T07:50:07;25.65;;;12.73;;
71626;SDS011;59475;52.464;13.590;2023-02-23T07:52:34;28.45;;;12.43;;
71626;SDS011;59475;52.464;13.590;2023-02-23T07:55:01;25.63;;;11.77;;
71626;SDS011;59475;52.464;13.590;2023-02-23T07:57:26;27.63;;;12.80;;
71626;SDS011;59475;52.464;13.590;2023-02-23T07:59:52;28.93;;;12.93;;
71626;SDS011;59475;52.464;13.590;2023-02-23T08:02:17;26.50;;;12.53;;
71626;SDS011;59475;52.464;13.590;2023-02-23T08:04:42;30.90;;;11.83;;
71626;SDS011;59475;52.464;13.590;2023-02-23T08:07:08;25.77;;;12.30;;
71626;SDS011;59475;52.464;13.590;2023-02-23T08:09:34;25.60;;;11.82;;
71626;SDS011;59475;52.464;13.590;2023-02-23T08:12:00;28.60;;;12.30;;
71626;SDS011;59475;52.464;13.590;2023-02-23T08:14:26;29.25;;;11.88;;
71626;SDS011;59475;52.464;13.590;2023-02-23T08:16:52;30.40;;;11.90;;
71626;SDS011;59475;52.464;13.590;2023-02-23T08:19:18;19.42;;;10.18;;
71626;SDS011;59475;52.464;13.590;2023-02-23T08:21:46;27.60;;;12.33;;
71626;SDS011;59475;52.464;13.590;2023-02-23T08:24:13;23.92;;;10.98;;
71626;SDS011;59475;52.464;13.590;2023-02-23T08:26:39;23.95;;;12.32;;
71626;SDS011;59475;52.464;13.590;2023-02-23T08:29:05;29.10;;;12.40;;
71626;SDS011;59475;52.464;13.590;2023-02-23T08:31:30;24.50;;;11.57;;
71626;SDS011;59475;52.464;13.590;2023-02-23T08:33:57;29.50;;;12.18;;
71626;SDS011;59475;52.464;13.590;2023-02-23T08:36:23;25.67;;;11.70;;
71626;SDS011;59475;52.464;13.590;2023-02-23T08:38:48;24.23;;;11.55;;
71626;SDS011;59475;52.464;13.590;2023-02-23T08:41:14;23.40;;;11.40;;
71626;SDS011;59475;52.464;13.590;2023-02-23T08:43:40;24.97;;;11.20;;
71626;SDS011;59475;52.464;13.590;2023-02-23T08:46:05;30.33;;;13.17;;
71626;SDS011;59475;52.464;13.590;2023-02-23T08:48:31;26.13;;;10.95;;
71626;SDS011;59475;52.464;13.590;2023-02-23T08:50:57;25.77;;;12.90;;
71626;SDS011;59475;52.464;13.590;2023-02-23T08:53:24;26.40;;;11.45;;
71626;SDS011;59475;52.464;13.590;2023-02-23T08:55:55;31.07;;;12.63;;
71626;SDS011;59475;52.464;13.590;2023-02-23T08:58:21;23.17;;;12.07;;
71626;SDS011;59475;52.464;13.590;2023-02-23T09:00:47;21.55;;;11.55;;
71626;SDS011;59475;52.464;13.590;2023-02-23T09:03:12;28.57;;;11.63;;
71626;SDS011;59475;52.464;13.590;2023-02-23T09:05:38;22.90;;;11.47;;
71626;SDS011;59475;52.464;13.590;2023-02-23T09:08:03;24.43;;;12.17;;
71626;SDS011;59475;52.464;13.590;2023-02-23T09:10:29;29.02;;;12.20;;
71626;SDS011;59475;52.464;13.590;2023-02-23T09:12:54;23.13;;;11.53;;
71626;SDS011;59475;52.464;13.590;2023-02-23T09:15:20;23.87;;;12.03;;
71626;SDS011;59475;52.464;13.590;2023-02-23T09:17:46;26.30;;;11.55;;
71626;SDS011;59475;52.464;13.590;2023-02-23T09:20:12;29.58;;;12.18;;
71626;SDS011;59475;52.464;13.590;2023-02-23T09:22:40;27.60;;;11.93;;
71626;SDS011;59475;52.464;13.590;2023-02-23T09:25:09;23.40;;;10.87;;
71626;SDS011;59475;52.464;13.590;2023-02-23T09:27:36;26.27;;;11.23;;
71626;SDS011;59475;52.464;13.590;2023-02-23T09:30:02;20.27;;;11.27;;
71626;SDS011;59475;52.464;13.590;2023-02-23T09:32:28;29.03;;;12.00;;
71626;SDS011;59475;52.464;13.590;2023-02-23T09:34:54;23.50;;;11.95;;
71626;SDS011;59475;52.464;13.590;2023-02-23T09:37:19;26.90;;;11.90;;
71626;SDS011;59475;52.464;13.590;2023-02-23T09:39:44;28.10;;;12.50;;
71626;SDS011;59475;52.464;13.590;2023-02-23T09:42:15;25.97;;;12.47;;
71626;SDS011;59475;52.464;13.590;2023-02-23T09:45:18;26.15;;;12.50;;
71626;SDS011;59475;52.464;13.590;2023-02-23T09:47:57;25.98;;;11.68;;
71626;SDS011;59475;52.464;13.590;2023-02-23T09:50:31;25.50;;;12.32;;
71626;SDS011;59475;52.464;13.590;2023-02-23T09:56:11;21.17;;;12.65;;
71626;SDS011;59475;52.464;13.590;2023-02-23T09:58:42;27.38;;;12.10;;
71626;SDS011;59475;52.464;13.590;2023-02-23T10:01:21;31.98;;;13.23;;
71626;SDS011;59475;52.464;13.590;2023-02-23T10:07:14;23.00;;;12.65;;
71626;SDS011;59475;52.464;13.590;2023-02-23T10:10:05;25.48;;;12.02;;
71626;SDS011;59475;52.464;13.590;2023-02-23T10:21:30;22.10;;;12.13;;
71626;SDS011;59475;52.464;13.590;2023-02-23T10:24:04;25.98;;;11.93;;
71626;SDS011;59475;52.464;13.590;2023-02-23T10:26:38;30.10;;;12.55;;
71626;SDS011;59475;52.464;13.590;2023-02-23T10:32:26;31.00;;;11.63;;
71626;SDS011;59475;52.464;13.590;2023-02-23T10:35:04;25.85;;;12.77;;
71626;SDS011;59475;52.464;13.590;2023-02-23T10:37:37;28.83;;;13.13;;
71626;SDS011;59475;52.464;13.590;2023-02-23T10:40:03;25.10;;;11.67;;
71626;SDS011;59475;52.464;13.590;2023-02-23T10:42:30;27.48;;;12.68;;
71626;SDS011;59475;52.464;13.590;2023-02-23T10:44:56;16.83;;;10.38;;
71626;SDS011;59475;52.464;13.590;2023-02-23T10:47:26;23.33;;;13.27;;
71626;SDS011;59475;52.464;13.590;2023-02-23T10:49:55;25.13;;;12.18;;
71626;SDS011;59475;52.464;13.590;2023-02-23T10:54:48;28.95;;;13.35;;
71626;SDS011;59475;52.464;13.590;2023-02-23T10:57:19;25.15;;;12.25;;
71626;SDS011;59475;52.464;13.590;2023-02-23T11:00:04;23.15;;;11.98;;
71626;SDS011;59475;52.464;13.590;2023-02-23T11:02:33;24.77;;;11.70;;
71626;SDS011;59475;52.464;13.590;2023-02-23T11:05:00;24.50;;;14.50;;
71626;SDS011;59475;52.464;13.590;2023-02-23T11:07:27;27.05;;;13.57;;
71626;SDS011;59475;52.464;13.590;2023-02-23T11:10:23;25.70;;;12.60;;
71626;SDS011;59475;52.464;13.590;2023-02-23T11:12:50;20.50;;;10.68;;
71626;SDS011;59475;52.464;13.590;2023-02-23T11:17:58;24.50;;;14.10;;
71626;SDS011;59475;52.464;13.590;2023-02-23T11:20:29;26.50;;;13.27;;
71626;SDS011;59475;52.464;13.590;2023-02-23T11:23:02;29.10;;;13.57;;
71626;SDS011;59475;52.464;13.590;2023-02-23T11:25:45;23.75;;;13.45;;
71626;SDS011;59475;52.464;13.590;2023-02-23T11:28:17;23.57;;;13.80;;
71626;SDS011;59475;52.464;13.590;2023-02-23T11:30:46;30.48;;;13.98;;
71626;SDS011;59475;52.464;13.590;2023-02-23T11:33:16;25.73;;;13.35;;
71626;SDS011;59475;52.464;13.590;2023-02-23T11:35:49;24.10;;;13.52;;
71626;SDS011;59475;52.464;13.590;2023-02-23T11:38:24;25.98;;;14.25;;
71626;SDS011;59475;52.464;13.590;2023-02-23T11:40:58;27.83;;;14.30;;
71626;SDS011;59475;52.464;13.590;2023-02-23T11:43:25;28.20;;;14.20;;
71626;SDS011;59475;52.464;13.590;2023-02-23T11:45:51;25.45;;;13.32;;
71626;SDS011;59475;52.464;13.590;2023-02-23T11:48:21;28.75;;;14.30;;
71626;SDS011;59475;52.464;13.590;2023-02-23T11:50:52;26.52;;;15.57;;
71626;SDS011;59475;52.464;13.590;2023-02-23T11:53:20;29.57;;;15.63;;
71626;SDS011;59475;52.464;13.590;2023-02-23T11:55:57;26.10;;;14.90;;
71626;SDS011;59475;52.464;13.590;2023-02-23T12:01:14;25.85;;;14.43;;
71626;SDS011;59475;52.464;13.590;2023-02-23T12:03:52;28.08;;;15.35;;
71626;SDS011;59475;52.464;13.590;2023-02-23T12:09:15;26.98;;;14.05;;
71626;SDS011;59475;52.464;13.590;2023-02-23T12:11:53;31.33;;;14.88;;
71626;SDS011;59475;52.464;13.590;2023-02-23T12:14:27;27.60;;;14.40;;
71626;SDS011;59475;52.464;13.590;2023-02-23T12:17:01;27.60;;;14.75;;
71626;SDS011;59475;52.464;13.590;2023-02-23T12:19:34;26.07;;;14.67;;
71626;SDS011;59475;52.464;13.590;2023-02-23T12:30:14;26.80;;;13.52;;
71626;SDS011;59475;52.464;13.590;2023-02-23T12:35:17;29.27;;;14.52;;
71626;SDS011;59475;52.464;13.590;2023-02-23T12:38:32;28.57;;;14.53;;
71626;SDS011;59475;52.464;13.590;2023-02-23T12:41:11;26.75;;;14.05;;
71626;SDS011;59475;52.464;13.590;2023-02-23T12:49:12;26.50;;;14.50;;
71626;SDS011;59475;52.464;13.590;2023-02-23T12:54:16;30.50;;;15.02;;
71626;SDS011;59475;52.464;13.590;2023-02-23T13:15:30;27.42;;;14.00;;
71626;SDS011;59475;52.464;13.590;2023-02-23T13:18:19;26.05;;;14.73;;
71626;SDS011;59475;52.464;13.590;2023-02-23T13:26:39;32.53;;;15.85;;
71626;SDS011;59475;52.464;13.590;2023-02-23T13:32:07;32.08;;;15.90;;
71626;SDS011;59475;52.464;13.590;2023-02-23T13:34:57;28.73;;;15.10;;
71626;SDS011;59475;52.464;13.590;2023-02-23T13:37:29;26.30;;;15.57;;
71626;SDS011;59475;52.464;13.590;2023-02-23T13:42:38;31.85;;;15.95;;
71626;SDS011;59475;52.464;13.590;2023-02-23T13:45:26;29.25;;;15.75;;
71626;SDS011;59475;52.464;13.590;2023-02-23T13:50:56;30.27;;;15.07;;
71626;SDS011;59475;52.464;13.590;2023-02-23T13:53:39;29.45;;;15.70;;
71626;SDS011;59475;52.464;13.590;2023-02-23T13:56:16;32.63;;;14.85;;
71626;SDS011;59475;52.464;13.590;2023-02-23T13:58:45;26.92;;;15.50;;
71626;SDS011;59475;52.464;13.590;2023-02-23T14:01:41;32.57;;;15.77;;
71626;SDS011;59475;52.464;13.590;2023-02-23T14:06:52;32.72;;;15.93;;
71626;SDS011;59475;52.464;13.590;2023-02-23T14:09:34;28.30;;;15.80;;
71626;SDS011;59475;52.464;13.590;2023-02-23T14:19:43;30.88;;;16.10;;
71626;SDS011;59475;52.464;13.590;2023-02-23T14:22:34;26.97;;;15.00;;
71626;SDS011;59475;52.464;13.590;2023-02-23T14:27:58;26.90;;;14.93;;
71626;SDS011;59475;52.464;13.590;2023-02-23T14:30:46;33.28;;;16.73;;
71626;SDS011;59475;52.464;13.590;2023-02-23T14:41:42;29.98;;;15.98;;
71626;SDS011;59475;52.464;13.590;2023-02-23T14:44:29;32.03;;;15.98;;
71626;SDS011;59475;52.464;13.590;2023-02-23T14:49:43;31.10;;;17.00;;
71626;SDS011;59475;52.464;13.590;2023-02-23T14:52:22;35.22;;;17.23;;
71626;SDS011;59475;52.464;13.590;2023-02-23T14:54:49;32.10;;;16.55;;
71626;SDS011;59475;52.464;13.590;2023-02-23T14:59:44;34.10;;;18.05;;
71626;SDS011;59475;52.464;13.590;2023-02-23T15:02:20;34.57;;;18.13;;
71626;SDS011;59475;52.464;13.590;2023-02-23T15:04:48;34.33;;;17.75;;
71626;SDS011;59475;52.464;13.590;2023-02-23T15:07:15;37.60;;;18.02;;
71626;SDS011;59475;52.464;13.590;2023-02-23T15:09:52;33.83;;;20.30;;
71626;SDS011;59475;52.464;13.590;2023-02-23T15:12:20;34.10;;;17.97;;
71626;SDS011;59475;52.464;13.590;2023-02-23T15:14:51;32.80;;;19.08;;
71626;SDS011;59475;52.464;13.590;2023-02-23T15:17:20;34.90;;;19.48;;
71626;SDS011;59475;52.464;13.590;2023-02-23T15:19:48;33.08;;;18.58;;
71626;SDS011;59475;52.464;13.590;2023-02-23T15:22:22;36.28;;;20.27;;
71626;SDS011;59475;52.464;13.590;2023-02-23T15:24:50;38.30;;;19.90;;
71626;SDS011;59475;52.464;13.590;2023-02-23T15:27:16;38.10;;;18.88;;
71626;SDS011;59475;52.464;13.590;2023-02-23T15:29:44;36.53;;;20.37;;
71626;SDS011;59475;52.464;13.590;2023-02-23T15:32:11;38.72;;;20.33;;
71626;SDS011;59475;52.464;13.590;2023-02-23T15:34:49;41.60;;;20.48;;
71626;SDS011;59475;52.464;13.590;2023-02-23T15:39:51;43.05;;;21.92;;
71626;SDS011;59475;52.464;13.590;2023-02-23T15:42:22;40.58;;;21.75;;
71626;SDS011;59475;52.464;13.590;2023-02-23T15:45:34;39.20;;;21.60;;
71626;SDS011;59475;52.464;13.590;2023-02-23T15:47:43;43.80;;;22.20;;
71626;SDS011;59475;52.464;13.590;2023-02-23T15:50:14;41.50;;;23.10;;
71626;SDS011;59475;52.464;13.590;2023-02-23T15:52:46;45.40;;;23.75;;
71626;SDS011;59475;52.464;13.590;2023-02-23T15:55:23;48.85;;;24.13;;
71626;SDS011;59475;52.464;13.590;2023-02-23T15:58:12;47.28;;;23.00;;
71626;SDS011;59475;52.464;13.590;2023-02-23T16:00:48;48.07;;;23.00;;
71626;SDS011;59475;52.464;13.590;2023-02-23T16:03:28;54.25;;;23.30;;
71626;SDS011;59475;52.464;13.590;2023-02-23T16:06:02;50.47;;;25.02;;
71626;SDS011;59475;52.464;13.590;2023-02-23T16:08:55;47.65;;;24.27;;
71626;SDS011;59475;52.464;13.590;2023-02-23T16:11:29;50.50;;;24.33;;
71626;SDS011;59475;52.464;13.590;2023-02-23T16:14:00;51.90;;;25.80;;
71626;SDS011;59475;52.464;13.590;2023-02-23T16:16:26;54.97;;;24.92;;
71626;SDS011;59475;52.464;13.590;2023-02-23T16:18:53;49.85;;;26.10;;
71626;SDS011;59475;52.464;13.590;2023-02-23T16:21:25;57.10;;;25.87;;
71626;SDS011;59475;52.464;13.590;2023-02-23T16:23:55;56.20;;;26.45;;
71626;SDS011;59475;52.464;13.590;2023-02-23T16:29:15;57.83;;;27.15;;
71626;SDS011;59475;52.464;13.590;2023-02-23T16:31:48;61.72;;;28.00;;
71626;SDS011;59475;52.464;13.590;2023-02-23T16:34:22;58.97;;;27.67;;
71626;SDS011;59475;52.464;13.590;2023-02-23T16:36:53;59.85;;;29.20;;
71626;SDS011;59475;52.464;13.590;2023-02-23T16:39:20;65.78;;;29.08;;
71626;SDS011;59475;52.464;13.590;2023-02-23T16:41:49;56.15;;;26.17;;
71626;SDS011;59475;52.464;13.590;2023-02-23T16:44:19;59.58;;;27.67;;
71626;SDS011;59475;52.464;13.590;2023-02-23T16:49:26;59.65;;;27.33;;
71626;SDS011;59475;52.464;13.590;2023-02-23T16:51:54;60.85;;;28.52;;
71626;SDS011;59475;52.464;13.590;2023-02-23T16:54:20;60.63;;;28.13;;
71626;SDS011;59475;52.464;13.590;2023-02-23T16:56:46;65.90;;;28.63;;
71626;SDS011;59475;52.464;13.590;2023-02-23T16:59:12;61.45;;;29.67;;
71626;SDS011;59475;52.464;13.590;2023-02-23T17:01:40;65.93;;;31.00;;
71626;SDS011;59475;52.464;13.590;2023-02-23T17:04:10;63.23;;;29.83;;
71626;SDS011;59475;52.464;13.590;2023-02-23T17:06:39;65.30;;;29.42;;
71626;SDS011;59475;52.464;13.590;2023-02-23T17:09:08;72.70;;;31.30;;